Flight Track Log - Related Links

Times and Time Zones

All times are in EDT time to prevent confusion due to time zone crossing. See the ANE8817 flight status page for this flight to view local times or setup timezone preferences in your user account.


Time Position Orientation Groundspeed Altitude Reporting Facility
EDT Latitude Longitude Course Direction KTS MPH feet Rate Location/Type
Thu 02:47:00 AM 44.3672 5.3148 244° Southwest  Level Estimated
Thu 02:48:00 AM 44.3220 5.1938 242° Southwest  Level Estimated
Thu 02:49:00 AM 44.2767 5.0730 242° Southwest  Level Estimated
Thu 02:50:00 AM 44.2313 4.9524 242° Southwest  Level Estimated
Thu 02:51:00 AM 44.1857 4.8319 242° Southwest  Level Estimated
Thu 02:52:00 AM 44.1400 4.7116 242° Southwest  Level Estimated
Thu 02:53:00 AM 44.0942 4.5915 242° Southwest  Level Estimated
Thu 02:54:00 AM 44.0483 4.4716 242° Southwest  Level Estimated
Thu 02:55:00 AM 44.0022 4.3519 242° Southwest  Level Estimated
Thu 02:56:00 AM 43.9560 4.2324 242° Southwest  Level Estimated
Thu 02:57:00 AM 43.9097 4.1131 242° Southwest  Level Estimated
Thu 02:58:00 AM 43.8633 3.9939 242° Southwest  Level Estimated
Thu 02:59:00 AM 43.8167 3.8749 242° Southwest  Level Estimated
Thu 03:00:00 AM 43.7700 3.7562 241° Southwest  Level Estimated
Thu 03:01:00 AM 43.7232 3.6376 241° Southwest  Level Estimated
Thu 03:02:00 AM 43.6763 3.5192 241° Southwest  Level Estimated
Thu 03:03:00 AM 43.6293 3.4009 241° Southwest  Level Estimated
Thu 03:04:00 AM 43.5821 3.2829 241° Southwest  Level Estimated
Thu 03:05:00 AM 43.5348 3.1650 241° Southwest  Level Estimated
Thu 03:06:00 AM 43.4874 3.0473 241° Southwest  Level Estimated
Thu 03:07:00 AM 43.4399 2.9299 241° Southwest  Level Estimated
Thu 03:08:00 AM 43.3922 2.8126 241° Southwest  Level Estimated
Thu 03:09:00 AM 43.3444 2.6954 241° Southwest  Level Estimated
Thu 03:10:00 AM 43.2966 2.5785 241° Southwest  Level Estimated
Thu 03:11:00 AM 43.2485 2.4618 241° Southwest  Level Estimated
Thu 03:12:00 AM 43.2004 2.3452 241° Southwest  Level Estimated
Thu 03:13:00 AM 43.1522 2.2288 240° Southwest  Level Estimated
Thu 03:14:00 AM 43.1038 2.1126 240° Southwest  Level Estimated
Thu 03:15:00 AM 43.0553 1.9966 240° Southwest  Level Estimated
Thu 03:16:00 AM 43.0067 1.8808 240° Southwest  Level Estimated
Thu 03:17:00 AM 42.9580 1.7651 240° Southwest  Level Estimated
Thu 03:18:00 AM 42.9092 1.6497 240° Southwest  Level Estimated
Thu 03:19:00 AM 42.8602 1.5344 240° Southwest  Level Estimated
Thu 03:20:00 AM 42.8111 1.4193 240° Southwest  Level Estimated
Thu 03:21:00 AM 42.7620 1.3044 240° Southwest  Level Estimated
Thu 03:22:00 AM 42.7127 1.1897 240° Southwest  Level Estimated
Thu 03:23:00 AM 42.6633 1.0751 240° Southwest  Level Estimated
Thu 03:24:00 AM 42.6138 0.9607 240° Southwest  Level Estimated
Thu 03:25:00 AM 42.5641 0.8465 239° Southwest  Level Estimated
Thu 03:26:00 AM 42.5144 0.7325 239° Southwest  Level Estimated
Thu 03:27:00 AM 42.4645 0.6187 239° Southwest  Level Estimated
Thu 03:28:00 AM 42.4145 0.5051 239° Southwest  Level Estimated
Thu 03:29:00 AM 42.3644 0.3916 239° Southwest  Level Estimated
Thu 03:30:00 AM 42.3142 0.2783 239° Southwest  Level Estimated
Thu 03:31:00 AM 42.2639 0.1652 239° Southwest  Level Estimated
Thu 03:32:00 AM 42.2135 0.0523 239° Southwest  Level Estimated
Thu 03:33:00 AM 42.1630 -0.0604 239° Southwest  Level Estimated
Thu 03:34:00 AM 42.1123 -0.1730 239° Southwest  Level Estimated
Thu 03:35:00 AM 42.0616 -0.2854 239° Southwest  Level Estimated
Thu 03:36:00 AM 42.0107 -0.3976 239° Southwest  Level Estimated
Thu 03:37:00 AM 41.9598 -0.5096 239° Southwest  Level Estimated
Thu 03:38:00 AM 41.9087 -0.6214 238° Southwest  Level Estimated
Thu 03:39:00 AM 41.8575 -0.7331 238° Southwest  Level Estimated
Thu 03:40:00 AM 41.8062 -0.8446 238° Southwest  Level Estimated
Thu 03:41:00 AM 41.7548 -0.9559 238° Southwest  Level Estimated
Thu 03:42:00 AM 41.7033 -1.0670 238° Southwest  Level Estimated
Thu 03:43:00 AM 41.6517 -1.1779 238° Southwest  Level Estimated
Thu 03:44:00 AM 41.5999 -1.2887 238° Southwest  Level Estimated
Thu 03:45:00 AM 41.5481 -1.3993 238° Southwest  Level Estimated
Thu 03:46:00 AM 41.4962 -1.5097 238° Southwest  Level Estimated
Thu 03:47:00 AM 41.4441 -1.6199 238° Southwest  Level Estimated
Thu 03:48:00 AM 41.3920 -1.7300 238° Southwest  Level Estimated
Thu 03:49:00 AM 41.3397 -1.8399 238° Southwest  Level Estimated
Thu 03:50:00 AM 41.2874 -1.9496 238° Southwest  Level Estimated
Thu 03:51:00 AM 41.2349 -2.0591 238° Southwest  Level Estimated
Thu 03:52:00 AM 41.1824 -2.1685 237° Southwest  Level Estimated
Thu 03:53:00 AM 41.1297 -2.2777 237° Southwest  Level Estimated
Thu 03:54:00 AM 41.0769 -2.3867 237° Southwest  Level Estimated
Thu 03:55:00 AM 41.0241 -2.4955 237° Southwest  Level Estimated
Thu 03:56:00 AM 40.9711 -2.6041 237° Southwest  Level Estimated
Thu 03:57:00 AM 40.9180 -2.7126 237° Southwest  Level Estimated
Thu 03:58:00 AM 40.8648 -2.8209 237° Southwest  Level Estimated
Thu 03:59:00 AM 40.8116 -2.9290 237° Southwest  Level Estimated
Thu 04:00:00 AM 40.7582 -3.0370 237° Southwest  Level Estimated
Thu 04:01:00 AM 40.7047 -3.1448 237° Southwest  Level Estimated
Thu 04:02:00 AM 40.6511 -3.2524 237° Southwest  Level Estimated
Thu 04:03:00 AM 40.5975 -3.3598 237° Southwest  Level Estimated
Thu 04:04:00 AM 40.5437 -3.4671 237° Southwest  Level Estimated
Thu 04:05:00 AM 40.4936 -3.5668 237° Southwest  Level Estimated
Thu 04:06:00 AM 40.4936 -3.5668 217° Southwest  Level Estimated
Thu 04:07:00 AM 40.4936 -3.5668 217° Southwest  Level Estimated
Thu 04:08:00 AM 40.4936 -3.5668 217° Southwest  Level Estimated
Thu 04:09:00 AM 40.4936 -3.5668 217° Southwest  Level Estimated
Thu 04:10:00 AM 40.4936 -3.5668 217° Southwest  Level Estimated
Thu 04:11:00 AM 40.4936 -3.5668 217° Southwest  Level Estimated
Thu 04:12:00 AM 40.4936 -3.5668 217° Southwest  Level Estimated
Thu 04:13:00 AM 40.4936 -3.5668 217° Southwest  Level Estimated
Thu 04:14:00 AM 40.4936 -3.5668 217° Southwest  Level Estimated
Thu 04:15:00 AM 40.4936 -3.5668 217° Southwest  Level Estimated
Thu 04:16:00 AM 40.4936 -3.5668 217° Southwest  Level Estimated

Login

Don't have an account? Register now (free) for customized features, flight alerts, and more!